Time;durP1;ratioP1;P1;durP2;ratioP2;P2;SDS_P1;SDS_P2;PMS_P1;PMS_P2;Temp;Humidity;BMP_temperature;BMP_pressure;BME280_temperature;BME280_humidity;BME280_pressure;Samples;Min_cycle;Max_cycle;Signal;HPM_P1;HPM_P2
2021/08/21 00:00:54;;;;;;;6.73;5.17;;;;;;;11.75;83.06;101941.38;2616575;54;20159;-76
2021/08/21 00:03:20;;;;;;;4.80;4.30;;;;;;;11.73;83.06;101946.44;2616850;54;20687;-77
2021/08/21 00:05:45;;;;;;;5.40;4.50;;;;;;;11.71;82.78;101948.06;2616911;54;20124;-76
2021/08/21 00:08:10;;;;;;;4.83;3.87;;;;;;;11.65;83.04;101947.88;2616736;46;20159;-74
2021/08/21 00:10:35;;;;;;;4.00;3.37;;;;;;;11.60;83.14;101944.28;2616190;54;20124;-75
2021/08/21 00:13:01;;;;;;;3.50;3.20;;;;;;;11.59;83.07;101949.34;2616610;54;20244;-76
2021/08/21 00:15:27;;;;;;;3.53;3.23;;;;;;;11.55;83.03;101944.91;2616509;50;20136;-76
2021/08/21 00:17:53;;;;;;;4.77;3.70;;;;;;;11.54;83.13;101949.19;2616869;54;20143;-75
2021/08/21 00:20:18;;;;;;;3.73;3.37;;;;;;;11.51;83.14;101955.91;2617379;54;20645;-74
2021/08/21 00:22:44;;;;;;;7.30;4.20;;;;;;;11.48;83.19;101956.66;2617359;54;20150;-75
2021/08/21 00:25:10;;;;;;;5.47;4.03;;;;;;;11.47;83.08;101956.63;2617375;54;20207;-76
2021/08/21 00:27:35;;;;;;;4.33;3.50;;;;;;;11.44;83.39;101953.97;2616849;54;20135;-76
2021/08/21 00:30:01;;;;;;;5.00;3.47;;;;;;;11.42;83.28;101961.59;2617289;54;20135;-74
2021/08/21 00:32:26;;;;;;;3.80;3.40;;;;;;;11.40;83.32;101963.25;2617205;54;20123;-77
2021/08/21 00:34:51;;;;;;;5.53;4.60;;;;;;;11.48;83.04;101958.38;2616725;47;20127;-75
2021/08/21 00:37:17;;;;;;;5.77;4.50;;;;;;;11.49;83.28;101961.00;2617146;54;20124;-75
2021/08/21 00:39:42;;;;;;;5.40;3.93;;;;;;;11.48;83.18;101963.50;2616972;54;20130;-76
2021/08/21 00:42:08;;;;;;;4.03;3.37;;;;;;;11.44;83.15;101962.53;2616866;54;20140;-74
2021/08/21 00:44:34;;;;;;;4.87;3.83;;;;;;;11.42;83.06;101965.84;2616741;39;20567;-77
2021/08/21 00:47:05;;;;;;;4.73;4.13;;;;;;;11.39;83.04;101969.19;2616860;54;20119;-76
2021/08/21 00:49:31;;;;;;;7.10;5.30;;;;;;;11.41;83.21;101967.56;2616625;54;20138;-76
2021/08/21 00:52:01;;;;;;;5.07;4.33;;;;;;;11.36;83.19;101963.97;2616817;54;20235;-75
2021/08/21 00:54:27;;;;;;;7.03;5.07;;;;;;;11.37;83.45;101965.69;2615271;54;20214;-76
2021/08/21 00:56:54;;;;;;;7.40;5.10;;;;;;;11.36;83.46;101957.94;2616611;54;20127;-76
2021/08/21 00:59:20;;;;;;;10.07;6.57;;;;;;;11.35;83.58;101961.34;2616820;54;20140;-75
2021/08/21 01:01:45;;;;;;;10.30;7.30;;;;;;;11.32;84.05;101967.25;2616900;54;20140;-77
2021/08/21 01:04:10;;;;;;;8.87;6.63;;;;;;;11.32;84.27;101971.47;2616954;54;20144;-76
2021/08/21 01:06:36;;;;;;;5.80;5.00;;;;;;;11.28;84.01;101978.22;2617324;39;20505;-74
2021/08/21 01:09:03;;;;;;;5.90;5.13;;;;;;;11.26;84.14;101981.53;2616707;54;20146;-76
2021/08/21 01:11:31;;;;;;;7.50;5.10;;;;;;;11.24;83.98;101967.81;2616715;54;20131;-75
2021/08/21 01:13:57;;;;;;;8.10;6.33;;;;;;;11.25;84.07;101964.41;2616877;54;20120;-74
2021/08/21 01:16:23;;;;;;;6.97;5.67;;;;;;;11.22;83.83;101966.88;2616914;54;20716;-76
2021/08/21 01:18:49;;;;;;;14.80;9.73;;;;;;;11.20;84.01;101964.25;2616747;54;20135;-77
2021/08/21 01:21:14;;;;;;;11.00;8.33;;;;;;;11.17;84.03;101958.16;2617064;54;20154;-75
2021/08/21 01:23:40;;;;;;;9.50;6.93;;;;;;;11.17;83.85;101960.72;2617042;54;20131;-75
2021/08/21 01:26:09;;;;;;;8.60;6.30;;;;;;;11.15;83.94;101957.22;2616610;54;20669;-76
2021/08/21 01:28:34;;;;;;;7.63;6.27;;;;;;;11.14;83.90;101958.91;2616955;54;20127;-76
2021/08/21 01:31:03;;;;;;;8.30;6.23;;;;;;;11.14;83.79;101961.47;2616637;54;20134;-76
2021/08/21 01:33:28;;;;;;;6.90;5.93;;;;;;;11.17;83.86;101959.03;2616929;54;20128;-76
2021/08/21 01:35:53;;;;;;;8.27;5.97;;;;;;;11.20;83.90;101950.56;2617065;54;20672;-76
2021/08/21 01:38:19;;;;;;;6.00;5.13;;;;;;;11.23;84.06;101951.53;2617509;54;20151;-75
2021/08/21 01:40:50;;;;;;;5.13;4.63;;;;;;;11.28;83.90;101952.56;2618029;54;20124;-76
2021/08/21 01:43:15;;;;;;;5.20;4.70;;;;;;;11.32;83.77;101951.84;2618203;39;20549;-76
2021/08/21 01:45:40;;;;;;;5.73;4.80;;;;;;;11.36;83.90;101951.16;2617001;46;20143;-76
2021/08/21 01:48:06;;;;;;;5.13;4.50;;;;;;;11.42;84.31;101953.03;2616930;47;20147;-76
2021/08/21 01:50:32;;;;;;;5.07;4.57;;;;;;;11.46;84.36;101962.56;2616602;54;20162;-77
2021/08/21 01:52:57;;;;;;;4.13;3.70;;;;;;;11.50;84.15;101956.72;2616639;54;20685;-77
2021/08/21 01:55:23;;;;;;;3.67;3.33;;;;;;;11.54;84.14;101951.75;2616671;54;20127;-76
2021/08/21 01:57:48;;;;;;;3.57;3.27;;;;;;;11.59;84.24;101954.47;2616792;54;20143;-76
2021/08/21 02:00:14;;;;;;;3.67;3.30;;;;;;;11.63;84.32;101954.66;2616560;54;20120;-74
2021/08/21 02:02:40;;;;;;;4.23;2.80;;;;;;;11.65;84.39;101955.56;2616569;54;20159;-75
2021/08/21 02:05:06;;;;;;;2.80;2.50;;;;;;;11.68;84.10;101953.13;2616617;54;20151;-76
2021/08/21 02:07:32;;;;;;;2.93;2.70;;;;;;;11.73;84.06;101950.69;2616822;54;20123;-76
2021/08/21 02:09:57;;;;;;;3.37;2.83;;;;;;;11.79;84.43;101962.03;2616428;54;20123;-76
2021/08/21 02:12:23;;;;;;;3.80;3.40;;;;;;;11.83;84.35;101955.28;2616772;54;20642;-77
2021/08/21 02:14:48;;;;;;;3.47;3.17;;;;;;;11.86;84.56;101958.84;2616560;54;20127;-75
2021/08/21 02:17:14;;;;;;;3.17;2.83;;;;;;;11.89;84.44;101952.94;2616382;54;20150;-76
2021/08/21 02:19:39;;;;;;;3.50;3.20;;;;;;;11.92;84.36;101955.59;2616423;54;20127;-76
2021/08/21 02:22:05;;;;;;;4.93;4.43;;;;;;;11.92;84.29;101956.47;2616814;39;20650;-77
2021/08/21 02:24:33;;;;;;;3.20;2.90;;;;;;;11.93;84.46;101952.22;2616806;54;20144;-74
2021/08/21 02:27:01;;;;;;;4.33;3.93;;;;;;;11.97;84.43;101954.03;2616823;54;20127;-74
2021/08/21 02:29:28;;;;;;;5.70;3.90;;;;;;;11.99;84.56;101949.84;2616552;54;20243;-76
2021/08/21 02:31:56;;;;;;;6.50;4.97;;;;;;;11.99;84.45;101960.94;2616581;54;20142;-75
2021/08/21 02:34:23;;;;;;;4.67;4.27;;;;;;;11.99;84.35;101949.84;2615807;47;20669;-77
2021/08/21 02:36:48;;;;;;;3.87;3.17;;;;;;;11.96;84.37;101947.16;2616068;47;20138;-75
2021/08/21 02:39:14;;;;;;;4.20;3.80;;;;;;;11.92;84.60;101941.06;2616264;54;20143;-77
2021/08/21 02:41:39;;;;;;;3.97;3.63;;;;;;;11.95;84.39;101945.41;2616304;54;20648;-76
2021/08/21 02:44:05;;;;;;;4.63;4.23;;;;;;;11.98;84.35;101945.53;2616489;54;20139;-76
2021/08/21 02:46:30;;;;;;;4.57;3.60;;;;;;;11.98;84.48;101951.50;2616605;54;20144;-75
2021/08/21 02:48:55;;;;;;;3.27;3.07;;;;;;;12.00;84.40;101956.69;2616472;54;20139;-75
2021/08/21 02:51:21;;;;;;;3.40;2.97;;;;;;;11.93;84.74;101954.78;2616445;46;20135;-75
2021/08/21 02:53:46;;;;;;;3.70;3.40;;;;;;;11.84;84.72;101960.47;2617005;39;20516;-76
2021/08/21 02:56:11;;;;;;;4.57;2.57;;;;;;;11.79;84.64;101956.88;2615798;54;20455;-76
2021/08/21 02:58:36;;;;;;;2.60;2.40;;;;;;;11.74;84.72;101966.13;2616367;54;20167;-76
2021/08/21 03:01:02;;;;;;;3.90;2.77;;;;;;;11.74;84.86;101963.56;2616066;54;20660;-75
2021/08/21 03:03:27;;;;;;;2.77;2.20;;;;;;;11.70;84.84;101961.72;2616420;47;20715;-75
2021/08/21 03:05:52;;;;;;;2.97;2.77;;;;;;;11.80;85.06;101968.91;2615861;54;20139;-76
2021/08/21 03:08:17;;;;;;;3.60;3.00;;;;;;;11.81;84.82;101973.22;2616182;54;20151;-76
2021/08/21 03:10:43;;;;;;;3.23;2.63;;;;;;;11.80;85.09;101971.47;2616489;54;20787;-75
2021/08/21 03:13:08;;;;;;;3.10;2.83;;;;;;;11.90;84.88;101970.94;2616704;47;20140;-77
2021/08/21 03:15:33;;;;;;;7.50;3.70;;;;;;;11.97;84.75;101969.44;2616553;47;20169;-76
2021/08/21 03:17:59;;;;;;;3.03;2.73;;;;;;;11.86;84.88;101973.38;2616867;39;20550;-75
2021/08/21 03:20:26;;;;;;;2.53;2.33;;;;;;;11.78;85.04;101970.56;2616100;54;20135;-76
2021/08/21 03:22:52;;;;;;;2.50;2.30;;;;;;;11.71;85.32;101971.16;2617350;31;20615;-76
2021/08/21 03:25:18;;;;;;;2.20;2.00;;;;;;;11.64;85.30;101969.22;2616235;54;20116;-78
2021/08/21 03:27:43;;;;;;;2.30;2.03;;;;;;;11.60;85.52;101977.63;2616677;39;20548;-76
2021/08/21 03:30:09;;;;;;;3.17;2.30;;;;;;;11.52;85.46;101975.63;2617000;39;20492;-75
2021/08/21 03:32:34;;;;;;;2.13;2.00;;;;;;;11.47;85.32;101978.00;2617050;54;20135;-76
2021/08/21 03:35:00;;;;;;;2.50;2.30;;;;;;;11.41;85.32;101982.06;2617029;39;20539;-76
2021/08/21 03:37:25;;;;;;;3.20;2.50;;;;;;;11.31;85.75;101985.13;2617409;54;20168;-76
2021/08/21 03:39:51;;;;;;;2.87;2.63;;;;;;;11.28;85.55;101987.56;2617154;54;20123;-76
2021/08/21 03:42:17;;;;;;;2.53;2.33;;;;;;;11.21;85.78;101988.19;2617252;54;20279;-76
2021/08/21 03:44:43;;;;;;;2.80;2.10;;;;;;;11.16;85.63;101992.28;2617218;54;20114;-77
2021/08/21 03:47:09;;;;;;;2.23;2.03;;;;;;;11.13;85.66;101994.75;2617250;54;20116;-76
2021/08/21 03:49:34;;;;;;;2.40;2.20;;;;;;;11.14;85.58;101999.94;2616764;54;20166;-76
2021/08/21 03:52:00;;;;;;;3.00;2.80;;;;;;;11.18;85.49;102009.47;2617108;46;20136;-74
2021/08/21 03:54:25;;;;;;;2.67;2.47;;;;;;;11.24;85.26;101999.44;2617259;46;20148;-75
2021/08/21 03:56:50;;;;;;;2.80;2.60;;;;;;;11.30;85.66;102009.88;2617007;47;20143;-76
2021/08/21 03:59:16;;;;;;;4.97;3.20;;;;;;;11.40;85.25;102009.41;2616742;54;20268;-76
2021/08/21 04:01:41;;;;;;;3.13;2.93;;;;;;;11.45;85.15;102007.88;2616945;54;20160;-76
2021/08/21 04:04:06;;;;;;;2.20;2.00;;;;;;;11.46;85.17;102008.72;2616360;54;20143;-76
2021/08/21 04:06:31;;;;;;;1.67;1.57;;;;;;;11.47;85.10;102006.22;2617461;54;20128;-77
2021/08/21 04:08:57;;;;;;;2.77;2.40;;;;;;;11.53;85.31;102005.56;2617182;54;20245;-75
2021/08/21 04:11:22;;;;;;;2.07;1.87;;;;;;;11.57;85.20;102004.88;2617033;47;20126;-75
2021/08/21 04:13:47;;;;;;;2.20;2.00;;;;;;;11.61;85.47;102002.47;2617126;46;20115;-75
2021/08/21 04:16:12;;;;;;;2.50;2.30;;;;;;;11.65;85.14;102008.56;2616916;54;20665;-77
2021/08/21 04:18:38;;;;;;;2.40;2.20;;;;;;;11.68;85.20;102009.56;2616759;54;20139;-75
2021/08/21 04:21:04;;;;;;;2.67;2.47;;;;;;;11.72;85.43;102008.84;2616702;54;20635;-75
2021/08/21 04:23:30;;;;;;;2.37;2.17;;;;;;;11.75;85.41;102008.06;2616996;54;20231;-76
2021/08/21 04:25:59;;;;;;;2.40;2.20;;;;;;;11.80;85.41;102014.22;2616978;54;20641;-76
2021/08/21 04:28:28;;;;;;;1.93;1.83;;;;;;;11.85;85.31;102012.69;2616856;54;20141;-77
2021/08/21 04:30:55;;;;;;;2.43;2.23;;;;;;;11.91;85.21;102007.75;2616741;54;20130;-76
2021/08/21 04:33:20;;;;;;;2.00;1.90;;;;;;;11.97;85.62;102013.06;2616784;54;20136;-76
2021/08/21 04:35:46;;;;;;;2.30;2.10;;;;;;;12.06;85.52;102018.50;2616914;54;20137;-75
2021/08/21 04:38:11;;;;;;;1.70;1.60;;;;;;;12.11;85.45;102011.81;2616869;47;20178;-76
2021/08/21 04:40:36;;;;;;;3.80;2.43;;;;;;;12.16;85.38;102013.72;2616700;54;20131;-76
2021/08/21 04:43:02;;;;;;;2.20;2.00;;;;;;;12.22;85.17;102010.47;2617290;54;20276;-75
2021/08/21 04:45:28;;;;;;;4.73;4.33;;;;;;;12.29;85.14;102015.84;2617091;54;20158;-75
2021/08/21 04:47:53;;;;;;;6.00;5.40;;;;;;;12.34;84.91;102006.59;2616824;54;20730;-75
2021/08/21 04:50:18;;;;;;;4.83;4.43;;;;;;;12.34;85.20;102006.59;2616897;54;20131;-76
2021/08/21 04:52:44;;;;;;;4.33;3.93;;;;;;;12.35;85.14;102003.19;2616228;54;20227;-77
2021/08/21 04:55:09;;;;;;;4.23;3.90;;;;;;;12.40;85.14;102008.47;2616777;54;20751;-75
2021/08/21 04:57:34;;;;;;;4.00;3.13;;;;;;;12.40;84.93;101998.22;2634275;36;22251;-76
2021/08/21 05:00:02;;;;;;;3.43;3.13;;;;;;;12.44;84.86;102002.63;2616114;54;20147;-75
2021/08/21 05:02:27;;;;;;;2.33;2.13;;;;;;;12.41;84.92;102000.81;2616611;54;20120;-76
2021/08/21 05:04:52;;;;;;;3.80;3.50;;;;;;;12.46;84.83;102003.53;2616696;54;20655;-74
2021/08/21 05:07:18;;;;;;;4.47;3.40;;;;;;;12.47;84.99;102005.25;2616822;54;20115;-77
2021/08/21 05:09:43;;;;;;;5.97;3.90;;;;;;;12.61;84.65;102009.09;2616711;46;21087;-77
2021/08/21 05:12:08;;;;;;;15.07;5.53;;;;;;;12.65;84.46;102004.13;2616913;47;20245;-75
2021/08/21 05:14:33;;;;;;;6.03;4.87;;;;;;;12.79;84.09;102010.53;2616688;54;20203;-74
2021/08/21 05:16:59;;;;;;;22.97;5.10;;;;;;;12.69;84.29;102017.94;2616728;46;20131;-74
2021/08/21 05:19:37;;;;;;;5.60;4.03;;;;;;;12.89;84.10;102014.22;2616576;54;20164;-77
2021/08/21 05:22:40;;;;;;;4.30;3.90;;;;;;;12.75;84.10;102005.25;2616891;54;20445;-74
2021/08/21 05:24:54;;;;;;;3.50;3.20;;;;;;;12.83;84.14;102012.38;2617352;39;20202;-76
2021/08/21 05:27:21;;;;;;;3.13;2.93;;;;;;;12.85;84.30;102014.97;2616757;54;20128;-76
2021/08/21 05:29:46;;;;;;;3.00;2.80;;;;;;;12.84;84.16;102008.97;2617470;31;20585;-76
2021/08/21 05:32:12;;;;;;;3.27;3.07;;;;;;;12.89;84.57;102021.94;2616746;54;20138;-76
2021/08/21 05:34:38;;;;;;;3.00;2.80;;;;;;;12.94;84.32;102022.94;2616820;54;20124;-77
2021/08/21 05:37:03;;;;;;;2.80;2.60;;;;;;;12.98;84.70;102021.38;2617449;46;20119;-77
2021/08/21 05:39:32;;;;;;;5.47;3.33;;;;;;;13.05;84.75;102031.00;2616981;54;20136;-77
2021/08/21 05:41:57;;;;;;;3.03;2.80;;;;;;;13.10;84.41;102027.75;2617259;39;20782;-76
2021/08/21 05:44:22;;;;;;;3.63;3.33;;;;;;;13.20;84.44;102031.41;2618060;54;20159;-76
2021/08/21 05:46:47;;;;;;;3.50;3.20;;;;;;;13.22;84.68;102035.78;2618203;54;20160;-77
2021/08/21 05:49:13;;;;;;;7.30;4.77;;;;;;;13.29;84.67;102041.97;2618319;47;20213;-76
2021/08/21 05:51:38;;;;;;;7.07;4.03;;;;;;;13.37;84.62;102043.06;2617173;47;20131;-74
2021/08/21 05:54:03;;;;;;;5.20;4.77;;;;;;;13.52;84.88;102046.03;2616779;54;20164;-75
2021/08/21 05:56:28;;;;;;;4.87;4.47;;;;;;;13.58;84.61;102049.66;2616896;47;20204;-76
2021/08/21 05:58:54;;;;;;;5.17;4.73;;;;;;;13.75;84.41;102052.66;2616929;46;20258;-75
2021/08/21 06:01:19;;;;;;;5.10;4.60;;;;;;;13.85;84.21;102058.09;2616762;46;20136;-75
2021/08/21 06:03:44;;;;;;;4.60;4.20;;;;;;;13.98;83.62;102056.69;2616572;54;20171;-77
2021/08/21 06:06:11;;;;;;;4.77;4.37;;;;;;;14.09;83.36;102052.69;2616468;54;20115;-76
2021/08/21 06:08:37;;;;;;;4.70;4.30;;;;;;;14.19;83.39;102052.97;2617046;39;20572;-77
2021/08/21 06:11:02;;;;;;;6.13;5.53;;;;;;;14.30;83.37;102045.50;2616732;54;20175;-76
2021/08/21 06:13:27;;;;;;;4.40;4.00;;;;;;;14.45;82.76;102043.31;2616875;39;20815;-75
2021/08/21 06:15:53;;;;;;;4.83;4.13;;;;;;;14.65;82.25;102050.63;2616637;54;20147;-74
2021/08/21 06:18:18;;;;;;;5.00;4.50;;;;;;;14.75;81.84;102050.00;2616444;54;20150;-76
2021/08/21 06:20:43;;;;;;;5.37;4.87;;;;;;;15.00;81.29;102038.47;2616479;54;20116;-76
2021/08/21 06:23:09;;;;;;;5.40;4.90;;;;;;;15.12;81.23;102041.31;2616420;54;20130;-76
2021/08/21 06:25:34;;;;;;;4.80;4.40;;;;;;;15.21;81.03;102037.22;2616746;47;20756;-75
2021/08/21 06:27:59;;;;;;;6.93;6.30;;;;;;;15.31;80.57;102033.97;2616727;46;20131;-77
2021/08/21 06:30:24;;;;;;;5.33;4.83;;;;;;;15.37;80.50;102035.84;2616487;54;20150;-76
2021/08/21 06:32:50;;;;;;;6.10;5.50;;;;;;;15.49;80.06;102030.91;2617146;47;20135;-76
2021/08/21 06:35:15;;;;;;;5.53;5.00;;;;;;;15.51;80.04;102035.25;2616458;54;20127;-77
2021/08/21 06:37:40;;;;;;;5.13;4.63;;;;;;;15.54;79.77;102034.44;2616604;54;20151;-77
2021/08/21 06:40:06;;;;;;;6.87;6.17;;;;;;;15.64;79.75;102034.63;2616614;54;20231;-77
2021/08/21 06:42:31;;;;;;;6.63;6.03;;;;;;;15.65;78.94;102033.78;2617387;54;20668;-75
2021/08/21 06:44:57;;;;;;;5.57;4.90;;;;;;;15.71;78.95;102038.19;2616929;54;20152;-77
2021/08/21 06:47:22;;;;;;;6.53;5.83;;;;;;;15.85;78.59;102039.31;2616850;54;20124;-77
2021/08/21 06:49:47;;;;;;;7.13;6.43;;;;;;;16.10;77.59;102046.59;2616998;54;20119;-76
2021/08/21 06:52:12;;;;;;;7.23;5.57;;;;;;;16.16;77.43;102046.72;2616681;54;20131;-75
2021/08/21 06:54:38;;;;;;;7.23;5.87;;;;;;;16.11;77.72;102054.38;2616600;54;20127;-74
2021/08/21 06:57:03;;;;;;;6.07;5.47;;;;;;;16.52;75.75;102052.47;2616981;46;21884;-78
2021/08/21 06:59:28;;;;;;;6.23;5.50;;;;;;;16.41;75.90;102051.44;2616977;54;20139;-78
2021/08/21 07:01:54;;;;;;;6.17;5.53;;;;;;;16.34;76.73;102058.22;2617612;47;20156;-77
2021/08/21 07:04:19;;;;;;;6.17;4.30;;;;;;;16.29;76.45;102066.72;2617209;54;20127;-78
2021/08/21 07:06:44;;;;;;;5.53;4.80;;;;;;;16.50;77.19;102062.81;2617013;47;20131;-77
2021/08/21 07:09:10;;;;;;;5.67;5.17;;;;;;;16.42;77.06;102048.91;2616425;54;20131;-77
2021/08/21 07:11:35;;;;;;;5.73;5.13;;;;;;;16.36;77.95;102051.38;2616927;47;20128;-77
2021/08/21 07:14:00;;;;;;;5.60;5.10;;;;;;;16.35;77.70;102061.69;2616658;54;20131;-76
2021/08/21 07:16:25;;;;;;;5.87;5.30;;;;;;;16.49;77.36;102052.44;2616527;54;20903;-76
2021/08/21 07:18:51;;;;;;;7.40;5.50;;;;;;;16.59;77.66;102060.38;2617286;39;20547;-76
2021/08/21 07:21:16;;;;;;;5.30;4.80;;;;;;;16.64;77.33;102053.53;2617562;54;20132;-76
2021/08/21 07:23:42;;;;;;;7.00;6.37;;;;;;;16.74;77.52;102059.69;2617485;54;20215;-76
2021/08/21 07:26:07;;;;;;;6.60;5.83;;;;;;;16.86;76.83;102052.97;2616957;54;20127;-77
2021/08/21 07:28:32;;;;;;;7.37;6.30;;;;;;;16.92;76.23;102052.19;2616533;54;20143;-75
2021/08/21 07:30:58;;;;;;;5.57;5.07;;;;;;;17.04;76.66;102049.75;2615979;39;20575;-77
2021/08/21 07:33:23;;;;;;;7.20;6.10;;;;;;;17.24;75.43;102056.03;2616510;54;20131;-75
2021/08/21 07:35:48;;;;;;;7.03;5.70;;;;;;;17.33;75.17;102058.72;2617126;47;20219;-78
2021/08/21 07:38:14;;;;;;;5.23;4.73;;;;;;;17.38;75.03;102057.06;2616584;47;20235;-76
2021/08/21 07:40:39;;;;;;;6.37;4.83;;;;;;;17.51;74.38;102065.03;2616463;47;20238;-76
2021/08/21 07:43:04;;;;;;;5.10;4.37;;;;;;;17.70;74.35;102061.78;2616655;54;20215;-76
2021/08/21 07:45:30;;;;;;;5.03;4.53;;;;;;;17.73;72.79;102059.19;2617276;39;20608;-75
2021/08/21 07:47:56;;;;;;;5.70;4.20;;;;;;;17.82;73.43;102055.84;2616115;54;20143;-75
2021/08/21 07:50:21;;;;;;;4.50;4.10;;;;;;;17.92;72.86;102055.91;2616550;54;20130;-78
2021/08/21 07:52:46;;;;;;;5.07;3.73;;;;;;;17.97;72.32;102053.38;2616281;47;20700;-77
2021/08/21 07:55:13;;;;;;;4.27;3.87;;;;;;;18.07;72.49;102055.19;2616543;54;20131;-75
2021/08/21 07:57:39;;;;;;;4.13;3.73;;;;;;;18.17;72.32;102052.69;2615855;47;20159;-77
2021/08/21 08:00:05;;;;;;;3.43;3.13;;;;;;;18.31;72.72;102058.84;2616323;47;20203;-76
2021/08/21 08:02:30;;;;;;;4.33;3.50;;;;;;;18.57;71.35;102059.06;2616082;54;20154;-74
2021/08/21 08:04:56;;;;;;;3.10;2.80;;;;;;;18.58;69.78;102069.47;2616960;54;20127;-76
2021/08/21 08:07:21;;;;;;;3.80;3.10;;;;;;;18.63;69.45;102064.28;2616629;54;20231;-76
2021/08/21 08:09:47;;;;;;;3.10;2.67;;;;;;;18.58;69.37;102061.69;2616768;47;20244;-75
2021/08/21 08:12:12;;;;;;;3.20;2.43;;;;;;;18.74;69.60;102053.09;2616758;39;20608;-76
2021/08/21 08:14:38;;;;;;;2.93;2.10;;;;;;;18.79;69.03;102055.75;2616224;54;20135;-77
2021/08/21 08:17:03;;;;;;;3.53;1.97;;;;;;;18.66;67.79;102059.97;2616759;54;20124;-76
2021/08/21 08:19:28;;;;;;;1.83;1.73;;;;;;;18.85;67.32;102054.06;2617268;39;20548;-76
2021/08/21 08:21:54;;;;;;;2.47;1.83;;;;;;;18.81;67.78;102051.41;2616828;54;20138;-74
2021/08/21 08:24:19;;;;;;;2.97;2.03;;;;;;;18.90;68.58;102057.53;2617161;46;20668;-77
2021/08/21 08:26:45;;;;;;;3.23;1.73;;;;;;;19.07;67.92;102058.47;2616555;54;20270;-75
2021/08/21 08:29:10;;;;;;;1.90;1.70;;;;;;;19.15;67.90;102061.09;2616889;54;20139;-76
2021/08/21 08:31:35;;;;;;;2.10;1.53;;;;;;;19.22;67.78;102058.56;2617659;47;20120;-75
2021/08/21 08:34:01;;;;;;;1.67;1.57;;;;;;;19.26;67.10;102057.69;2617598;54;20128;-76
2021/08/21 08:36:26;;;;;;;2.17;1.60;;;;;;;19.45;66.53;102058.63;2616272;54;20176;-76
2021/08/21 08:38:51;;;;;;;2.57;1.20;;;;;;;19.56;66.86;102056.91;2616827;54;20195;-76
2021/08/21 08:41:20;;;;;;;2.03;1.50;;;;;;;19.72;65.79;102058.69;2617520;46;20201;-74
2021/08/21 08:43:46;;;;;;;1.77;1.67;;;;;;;19.74;66.03;102059.56;2616787;54;20169;-76
2021/08/21 08:46:11;;;;;;;4.50;1.90;;;;;;;20.19;61.83;102062.22;2616967;46;20135;-77
2021/08/21 08:48:37;;;;;;;5.70;2.00;;;;;;;20.18;61.55;102060.50;2634676;36;20210;-76
2021/08/21 08:51:02;;;;;;;4.13;2.03;;;;;;;19.97;62.92;102063.06;2616311;54;20131;-78
2021/08/21 08:53:28;;;;;;;1.97;1.60;;;;;;;20.18;60.55;102060.50;2617297;54;20131;-77
2021/08/21 08:55:53;;;;;;;2.47;1.70;;;;;;;20.07;61.04;102070.00;2616829;54;20147;-77
2021/08/21 08:58:18;;;;;;;3.33;1.43;;;;;;;20.01;62.07;102072.59;2618093;47;20673;-78
2021/08/21 09:00:43;;;;;;;2.10;1.33;;;;;;;20.24;61.23;102060.50;2617204;54;20240;-77
2021/08/21 09:03:23;;;;;;;1.70;1.57;;;;;;;20.18;60.51;102073.50;2617062;54;20127;-78
2021/08/21 09:05:49;;;;;;;1.47;1.17;;;;;;;20.21;59.61;102068.28;2617300;54;20124;-75
2021/08/21 09:08:29;;;;;;;2.00;1.40;;;;;;;20.50;58.15;102070.00;2617256;54;20758;-78
2021/08/21 09:11:02;;;;;;;3.20;1.27;;;;;;;20.32;58.93;102070.00;2617339;31;20627;-77
2021/08/21 09:13:27;;;;;;;1.87;1.10;;;;;;;20.41;59.09;102066.56;2616935;54;20146;-76
2021/08/21 09:15:55;;;;;;;2.17;1.40;;;;;;;20.76;58.14;102067.34;2616803;54;20127;-77
2021/08/21 09:18:28;;;;;;;2.50;1.70;;;;;;;20.75;58.30;102063.88;2616742;54;20151;-78
2021/08/21 09:21:02;;;;;;;1.83;1.23;;;;;;;21.05;56.22;102062.97;2616740;54;20152;-75
2021/08/21 09:23:43;;;;;;;1.93;1.30;;;;;;;21.09;55.60;102068.13;2616849;54;20248;-73
2021/08/21 09:26:27;;;;;;;2.20;1.30;;;;;;;21.04;56.72;102069.03;2617107;54;20131;-78
2021/08/21 09:28:56;;;;;;;1.97;1.20;;;;;;;21.17;57.98;102057.69;2616783;54;20645;-77
2021/08/21 09:31:23;;;;;;;1.73;1.17;;;;;;;21.18;57.55;102065.50;2616815;54;20123;-76
2021/08/21 09:33:53;;;;;;;3.40;1.37;;;;;;;21.35;55.24;102068.91;2617075;54;20223;-77
2021/08/21 09:36:33;;;;;;;2.93;1.30;;;;;;;21.42;55.69;102067.13;2616831;54;20123;-77
2021/08/21 09:39:10;;;;;;;3.67;1.33;;;;;;;21.48;55.37;102067.09;2616278;54;20174;-78
2021/08/21 09:41:54;;;;;;;2.20;1.27;;;;;;;21.65;56.46;102062.66;2616834;54;20163;-77
2021/08/21 09:44:41;;;;;;;1.83;1.30;;;;;;;21.97;54.91;102063.34;2616793;54;20126;-77
2021/08/21 09:47:16;;;;;;;2.50;1.00;;;;;;;21.95;55.06;102057.25;2617317;54;20223;-76
2021/08/21 09:49:43;;;;;;;3.03;1.43;;;;;;;22.20;53.27;102064.84;2616328;54;20684;-77
2021/08/21 09:52:11;;;;;;;2.53;1.50;;;;;;;22.05;55.63;102058.91;2616660;54;20128;-77
2021/08/21 09:54:40;;;;;;;2.33;1.27;;;;;;;22.10;54.85;102047.56;2616627;54;20159;-78
2021/08/21 09:57:06;;;;;;;1.17;1.07;;;;;;;22.32;55.33;102056.06;2617308;54;20166;-77
2021/08/21 09:59:36;;;;;;;1.53;1.13;;;;;;;22.67;52.00;102050.50;2616625;54;20151;-76
2021/08/21 10:02:08;;;;;;;2.07;1.40;;;;;;;22.62;51.17;102054.91;2616898;54;20119;-76
2021/08/21 10:04:34;;;;;;;2.13;1.17;;;;;;;22.38;52.88;102055.13;2617037;54;20116;-76
2021/08/21 10:07:04;;;;;;;1.77;1.10;;;;;;;22.34;53.80;102062.16;2617046;54;20677;-78
2021/08/21 10:09:30;;;;;;;3.03;1.33;;;;;;;22.33;54.30;102049.94;2616951;54;20127;-79
2021/08/21 10:11:56;;;;;;;1.92;1.40;;;;;;;22.39;52.55;102055.13;2616980;54;20166;-77
2021/08/21 10:14:24;;;;;;;1.83;1.17;;;;;;;22.40;52.25;102051.63;2617064;54;20733;-78
2021/08/21 10:16:50;;;;;;;1.10;0.90;;;;;;;22.33;51.87;102055.16;2617532;39;20530;-77
2021/08/21 10:19:18;;;;;;;1.10;0.90;;;;;;;22.25;50.33;102049.16;2616695;54;20151;-76
2021/08/21 10:21:51;;;;;;;1.93;0.87;;;;;;;22.38;51.19;102047.31;2616691;54;20116;-77
2021/08/21 10:24:26;;;;;;;1.85;0.90;;;;;;;22.54;50.30;102041.06;2616635;54;20136;-75
2021/08/21 10:26:58;;;;;;;1.80;0.87;;;;;;;23.16;50.49;102033.38;2617233;39;20527;-77
2021/08/21 10:29:23;;;;;;;2.43;1.10;;;;;;;23.89;46.54;102029.69;2617032;54;20162;-77
2021/08/21 10:31:48;;;;;;;1.38;0.70;;;;;;;24.17;47.62;102025.75;2616802;54;20147;-77
2021/08/21 10:34:15;;;;;;;1.67;1.10;;;;;;;24.60;46.41;102029.38;2616600;47;20134;-75
2021/08/21 10:36:47;;;;;;;2.67;1.20;;;;;;;25.07;45.46;102026.66;2617188;54;20116;-76
2021/08/21 10:39:36;;;;;;;1.33;0.80;;;;;;;25.28;45.16;102028.00;2617557;39;20691;-76
2021/08/21 10:42:34;;;;;;;2.03;1.00;;;;;;;25.86;43.55;102026.59;2617724;39;20503;-77
2021/08/21 10:45:00;;;;;;;0.82;0.75;;;;;;;25.99;43.75;102032.44;2617019;54;20112;-76
2021/08/21 10:47:31;;;;;;;1.80;0.90;;;;;;;25.99;42.77;102035.06;2617225;54;20199;-76
2021/08/21 10:50:15;;;;;;;2.15;0.98;;;;;;;25.88;43.17;102037.06;2616987;54;20193;-76
2021/08/21 10:52:52;;;;;;;2.00;1.15;;;;;;;25.96;43.66;102029.88;2617366;39;20560;-77
2021/08/21 10:55:28;;;;;;;1.63;0.98;;;;;;;26.24;44.52;102026.50;2617496;39;20546;-77
2021/08/21 10:57:59;;;;;;;1.95;1.10;;;;;;;26.55;42.24;102029.19;2617226;54;20155;-76
2021/08/21 11:00:42;;;;;;;2.40;1.00;;;;;;;26.65;40.61;102025.44;2617044;54;20135;-77
2021/08/21 11:03:12;;;;;;;1.13;0.90;;;;;;;26.87;42.58;102018.66;2617770;39;20781;-77
2021/08/21 11:06:04;;;;;;;1.65;1.00;;;;;;;27.40;39.08;102016.19;2616933;54;20127;-76
2021/08/21 11:08:35;;;;;;;1.05;0.80;;;;;;;27.72;38.26;102017.81;2616855;54;20166;-77
2021/08/21 11:14:23;;;;;;;2.17;1.00;;;;;;;26.84;42.28;102027.50;2616695;54;20154;-76
2021/08/21 11:17:03;;;;;;;1.95;1.00;;;;;;;26.63;41.82;102027.25;2617009;54;20119;-76
2021/08/21 11:19:45;;;;;;;1.77;1.13;;;;;;;26.00;43.96;102028.91;2616713;54;20150;-75
2021/08/21 11:22:18;;;;;;;1.85;1.10;;;;;;;25.70;43.48;102034.88;2617030;54;20175;-75
2021/08/21 11:24:52;;;;;;;1.10;1.00;;;;;;;25.51;45.37;102030.97;2616883;54;20118;-77
2021/08/21 11:27:29;;;;;;;1.75;1.10;;;;;;;25.19;44.31;102028.16;2616873;54;20133;-79